sensor_id;sensor_type;location;lat;lon;timestamp;pressure;altitude;pressure_sealevel;temperature
68446;BMP280;35789;48.414;12.768;2023-04-01T00:00:00;95700.0;;;
68446;BMP280;35789;48.414;12.768;2023-04-01T00:05:00;95700.0;;;
68446;BMP280;35789;48.414;12.768;2023-04-01T00:10:00;95690.0;;;
68446;BMP280;35789;48.414;12.768;2023-04-01T00:15:01;95700.0;;;
68446;BMP280;35789;48.414;12.768;2023-04-01T00:20:00;95700.0;;;
68446;BMP280;35789;48.414;12.768;2023-04-01T00:25:00;95700.0;;;
68446;BMP280;35789;48.414;12.768;2023-04-01T00:30:00;95710.0;;;
68446;BMP280;35789;48.414;12.768;2023-04-01T00:35:01;95710.0;;;
68446;BMP280;35789;48.414;12.768;2023-04-01T00:40:00;95710.0;;;
68446;BMP280;35789;48.414;12.768;2023-04-01T00:45:23;95710.0;;;
68446;BMP280;35789;48.414;12.768;2023-04-01T00:50:00;95710.0;;;
68446;BMP280;35789;48.414;12.768;2023-04-01T00:55:04;95710.0;;;
68446;BMP280;35789;48.414;12.768;2023-04-01T01:00:00;95710.0;;;
68446;BMP280;35789;48.414;12.768;2023-04-01T01:05:00;95710.0;;;
68446;BMP280;35789;48.414;12.768;2023-04-01T01:10:07;95720.0;;;
68446;BMP280;35789;48.414;12.768;2023-04-01T01:15:11;95710.0;;;
68446;BMP280;35789;48.414;12.768;2023-04-01T01:25:17;95720.0;;;
68446;BMP280;35789;48.414;12.768;2023-04-01T01:30:19;95720.0;;;
68446;BMP280;35789;48.414;12.768;2023-04-01T01:35:19;95720.0;;;
68446;BMP280;35789;48.414;12.768;2023-04-01T01:40:06;95710.0;;;
68446;BMP280;35789;48.414;12.768;2023-04-01T01:45:04;95710.0;;;
68446;BMP280;35789;48.414;12.768;2023-04-01T01:50:01;95710.0;;;
68446;BMP280;35789;48.414;12.768;2023-04-01T01:55:00;95700.0;;;
68446;BMP280;35789;48.414;12.768;2023-04-01T02:00:07;95700.0;;;
68446;BMP280;35789;48.414;12.768;2023-04-01T02:05:01;95700.0;;;
68446;BMP280;35789;48.414;12.768;2023-04-01T02:10:00;95710.0;;;
68446;BMP280;35789;48.414;12.768;2023-04-01T02:15:06;95710.0;;;
68446;BMP280;35789;48.414;12.768;2023-04-01T02:20:06;95710.0;;;
68446;BMP280;35789;48.414;12.768;2023-04-01T02:25:06;95710.0;;;
68446;BMP280;35789;48.414;12.768;2023-04-01T02:30:00;95720.0;;;
68446;BMP280;35789;48.414;12.768;2023-04-01T02:35:01;95720.0;;;
68446;BMP280;35789;48.414;12.768;2023-04-01T02:40:02;95730.0;;;
68446;BMP280;35789;48.414;12.768;2023-04-01T02:45:01;95730.0;;;
68446;BMP280;35789;48.414;12.768;2023-04-01T02:50:00;95730.0;;;
68446;BMP280;35789;48.414;12.768;2023-04-01T02:55:01;95740.0;;;
68446;BMP280;35789;48.414;12.768;2023-04-01T03:00:00;95740.0;;;
68446;BMP280;35789;48.414;12.768;2023-04-01T03:05:00;95740.0;;;
68446;BMP280;35789;48.414;12.768;2023-04-01T03:10:00;95750.0;;;
68446;BMP280;35789;48.414;12.768;2023-04-01T03:15:00;95740.0;;;
68446;BMP280;35789;48.414;12.768;2023-04-01T03:20:00;95740.0;;;
68446;BMP280;35789;48.414;12.768;2023-04-01T03:25:00;95750.0;;;
68446;BMP280;35789;48.414;12.768;2023-04-01T03:30:00;95750.0;;;
68446;BMP280;35789;48.414;12.768;2023-04-01T03:35:00;95750.0;;;
68446;BMP280;35789;48.414;12.768;2023-04-01T03:40:00;95760.0;;;
68446;BMP280;35789;48.414;12.768;2023-04-01T03:45:01;95760.0;;;
68446;BMP280;35789;48.414;12.768;2023-04-01T03:50:01;95760.0;;;
68446;BMP280;35789;48.414;12.768;2023-04-01T03:55:00;95760.0;;;
68446;BMP280;35789;48.414;12.768;2023-04-01T04:00:00;95770.0;;;
68446;BMP280;35789;48.414;12.768;2023-04-01T04:05:00;95770.0;;;
68446;BMP280;35789;48.414;12.768;2023-04-01T04:10:00;95770.0;;;
68446;BMP280;35789;48.414;12.768;2023-04-01T04:15:00;95770.0;;;
68446;BMP280;35789;48.414;12.768;2023-04-01T04:20:00;95770.0;;;
68446;BMP280;35789;48.414;12.768;2023-04-01T04:25:00;95770.0;;;
68446;BMP280;35789;48.414;12.768;2023-04-01T04:30:00;95780.0;;;
68446;BMP280;35789;48.414;12.768;2023-04-01T04:35:00;95790.0;;;
68446;BMP280;35789;48.414;12.768;2023-04-01T04:40:00;95790.0;;;
68446;BMP280;35789;48.414;12.768;2023-04-01T04:45:00;95790.0;;;
68446;BMP280;35789;48.414;12.768;2023-04-01T04:50:00;95790.0;;;
68446;BMP280;35789;48.414;12.768;2023-04-01T04:55:00;95790.0;;;
68446;BMP280;35789;48.414;12.768;2023-04-01T05:00:00;95790.0;;;
68446;BMP280;35789;48.414;12.768;2023-04-01T05:05:00;95800.0;;;
68446;BMP280;35789;48.414;12.768;2023-04-01T05:10:00;95800.0;;;
68446;BMP280;35789;48.414;12.768;2023-04-01T05:15:00;95800.0;;;
68446;BMP280;35789;48.414;12.768;2023-04-01T05:20:00;95810.0;;;
68446;BMP280;35789;48.414;12.768;2023-04-01T05:25:00;95810.0;;;
68446;BMP280;35789;48.414;12.768;2023-04-01T05:30:01;95810.0;;;
68446;BMP280;35789;48.414;12.768;2023-04-01T05:35:00;95820.0;;;
68446;BMP280;35789;48.414;12.768;2023-04-01T05:40:01;95820.0;;;
68446;BMP280;35789;48.414;12.768;2023-04-01T05:45:00;95820.0;;;
68446;BMP280;35789;48.414;12.768;2023-04-01T05:50:00;95830.0;;;
68446;BMP280;35789;48.414;12.768;2023-04-01T05:55:00;95820.0;;;
68446;BMP280;35789;48.414;12.768;2023-04-01T06:00:00;95830.0;;;
68446;BMP280;35789;48.414;12.768;2023-04-01T06:05:12;95820.0;;;
68446;BMP280;35789;48.414;12.768;2023-04-01T06:10:00;95830.0;;;
68446;BMP280;35789;48.414;12.768;2023-04-01T06:15:13;95830.0;;;
68446;BMP280;35789;48.414;12.768;2023-04-01T06:20:09;95830.0;;;
68446;BMP280;35789;48.414;12.768;2023-04-01T06:25:19;95830.0;;;
68446;BMP280;35789;48.414;12.768;2023-04-01T06:30:16;95830.0;;;
68446;BMP280;35789;48.414;12.768;2023-04-01T06:35:20;95830.0;;;
68446;BMP280;35789;48.414;12.768;2023-04-01T06:40:21;95830.0;;;
68446;BMP280;35789;48.414;12.768;2023-04-01T06:45:09;95830.0;;;
68446;BMP280;35789;48.414;12.768;2023-04-01T06:50:07;95830.0;;;
68446;BMP280;35789;48.414;12.768;2023-04-01T06:55:15;95820.0;;;
68446;BMP280;35789;48.414;12.768;2023-04-01T07:00:04;95820.0;;;
68446;BMP280;35789;48.414;12.768;2023-04-01T07:05:02;95830.0;;;
68446;BMP280;35789;48.414;12.768;2023-04-01T07:10:10;95820.0;;;
68446;BMP280;35789;48.414;12.768;2023-04-01T07:15:14;95810.0;;;
68446;BMP280;35789;48.414;12.768;2023-04-01T07:20:11;95810.0;;;
68446;BMP280;35789;48.414;12.768;2023-04-01T07:25:11;95800.0;;;
68446;BMP280;35789;48.414;12.768;2023-04-01T07:30:03;95810.0;;;
68446;BMP280;35789;48.414;12.768;2023-04-01T07:35:10;95810.0;;;
68446;BMP280;35789;48.414;12.768;2023-04-01T07:40:20;95820.0;;;
68446;BMP280;35789;48.414;12.768;2023-04-01T07:45:11;95820.0;;;
68446;BMP280;35789;48.414;12.768;2023-04-01T07:50:13;95810.0;;;
68446;BMP280;35789;48.414;12.768;2023-04-01T07:55:11;95820.0;;;
68446;BMP280;35789;48.414;12.768;2023-04-01T08:00:11;95820.0;;;
68446;BMP280;35789;48.414;12.768;2023-04-01T08:05:12;95810.0;;;
68446;BMP280;35789;48.414;12.768;2023-04-01T08:10:11;95810.0;;;
68446;BMP280;35789;48.414;12.768;2023-04-01T08:15:12;95810.0;;;
68446;BMP280;35789;48.414;12.768;2023-04-01T08:20:14;95800.0;;;
68446;BMP280;35789;48.414;12.768;2023-04-01T08:25:04;95810.0;;;
68446;BMP280;35789;48.414;12.768;2023-04-01T08:30:17;95800.0;;;
68446;BMP280;35789;48.414;12.768;2023-04-01T08:35:09;95800.0;;;
68446;BMP280;35789;48.414;12.768;2023-04-01T08:40:22;95800.0;;;
68446;BMP280;35789;48.414;12.768;2023-04-01T08:45:18;95800.0;;;
68446;BMP280;35789;48.414;12.768;2023-04-01T08:50:23;95800.0;;;
68446;BMP280;35789;48.414;12.768;2023-04-01T08:55:19;95790.0;;;
68446;BMP280;35789;48.414;12.768;2023-04-01T09:00:15;95790.0;;;
68446;BMP280;35789;48.414;12.768;2023-04-01T09:05:23;95780.0;;;
68446;BMP280;35789;48.414;12.768;2023-04-01T09:10:20;95800.0;;;
68446;BMP280;35789;48.414;12.768;2023-04-01T09:15:27;95800.0;;;
68446;BMP280;35789;48.414;12.768;2023-04-01T09:20:18;95790.0;;;
68446;BMP280;35789;48.414;12.768;2023-04-01T09:25:22;95790.0;;;
68446;BMP280;35789;48.414;12.768;2023-04-01T09:35:15;95780.0;;;
68446;BMP280;35789;48.414;12.768;2023-04-01T09:40:15;95800.0;;;
68446;BMP280;35789;48.414;12.768;2023-04-01T09:45:08;95780.0;;;
68446;BMP280;35789;48.414;12.768;2023-04-01T09:50:26;95780.0;;;
68446;BMP280;35789;48.414;12.768;2023-04-01T09:55:19;95780.0;;;
68446;BMP280;35789;48.414;12.768;2023-04-01T10:00:21;95780.0;;;
68446;BMP280;35789;48.414;12.768;2023-04-01T10:05:26;95780.0;;;
68446;BMP280;35789;48.414;12.768;2023-04-01T10:10:25;95780.0;;;
68446;BMP280;35789;48.414;12.768;2023-04-01T10:15:24;95770.0;;;
68446;BMP280;35789;48.414;12.768;2023-04-01T10:20:21;95770.0;;;
68446;BMP280;35789;48.414;12.768;2023-04-01T10:30:27;95760.0;;;
68446;BMP280;35789;48.414;12.768;2023-04-01T10:35:22;95750.0;;;
68446;BMP280;35789;48.414;12.768;2023-04-01T10:40:27;95750.0;;;
68446;BMP280;35789;48.414;12.768;2023-04-01T10:45:25;95750.0;;;
68446;BMP280;35789;48.414;12.768;2023-04-01T10:50:24;95750.0;;;
68446;BMP280;35789;48.414;12.768;2023-04-01T10:55:29;95740.0;;;
68446;BMP280;35789;48.414;12.768;2023-04-01T11:00:25;95750.0;;;
68446;BMP280;35789;48.414;12.768;2023-04-01T11:10:26;95750.0;;;
68446;BMP280;35789;48.414;12.768;2023-04-01T11:15:24;95740.0;;;
68446;BMP280;35789;48.414;12.768;2023-04-01T11:20:28;95760.0;;;
68446;BMP280;35789;48.414;12.768;2023-04-01T11:25:23;95760.0;;;
68446;BMP280;35789;48.414;12.768;2023-04-01T11:30:16;95750.0;;;
68446;BMP280;35789;48.414;12.768;2023-04-01T11:35:26;95750.0;;;
68446;BMP280;35789;48.414;12.768;2023-04-01T11:40:11;95740.0;;;
68446;BMP280;35789;48.414;12.768;2023-04-01T11:45:17;95740.0;;;
68446;BMP280;35789;48.414;12.768;2023-04-01T11:50:20;95740.0;;;
68446;BMP280;35789;48.414;12.768;2023-04-01T11:55:23;95740.0;;;
68446;BMP280;35789;48.414;12.768;2023-04-01T12:00:21;95740.0;;;
68446;BMP280;35789;48.414;12.768;2023-04-01T12:05:18;95760.0;;;
68446;BMP280;35789;48.414;12.768;2023-04-01T12:10:12;95760.0;;;
68446;BMP280;35789;48.414;12.768;2023-04-01T12:15:16;95760.0;;;
68446;BMP280;35789;48.414;12.768;2023-04-01T12:20:25;95770.0;;;
68446;BMP280;35789;48.414;12.768;2023-04-01T12:25:20;95790.0;;;
68446;BMP280;35789;48.414;12.768;2023-04-01T12:30:18;95780.0;;;
68446;BMP280;35789;48.414;12.768;2023-04-01T12:35:18;95790.0;;;
68446;BMP280;35789;48.414;12.768;2023-04-01T12:40:20;95790.0;;;
68446;BMP280;35789;48.414;12.768;2023-04-01T12:45:22;95790.0;;;
68446;BMP280;35789;48.414;12.768;2023-04-01T12:50:16;95790.0;;;
68446;BMP280;35789;48.414;12.768;2023-04-01T13:00:20;95790.0;;;
68446;BMP280;35789;48.414;12.768;2023-04-01T13:05:24;95810.0;;;
68446;BMP280;35789;48.414;12.768;2023-04-01T13:10:13;95810.0;;;
68446;BMP280;35789;48.414;12.768;2023-04-01T13:15:14;95820.0;;;
68446;BMP280;35789;48.414;12.768;2023-04-01T13:20:11;95830.0;;;
68446;BMP280;35789;48.414;12.768;2023-04-01T13:25:08;95830.0;;;
68446;BMP280;35789;48.414;12.768;2023-04-01T13:30:19;95830.0;;;
68446;BMP280;35789;48.414;12.768;2023-04-01T13:35:18;95840.0;;;
68446;BMP280;35789;48.414;12.768;2023-04-01T13:40:22;95840.0;;;
68446;BMP280;35789;48.414;12.768;2023-04-01T13:45:08;95840.0;;;
68446;BMP280;35789;48.414;12.768;2023-04-01T13:50:20;95840.0;;;
68446;BMP280;35789;48.414;12.768;2023-04-01T13:55:14;95840.0;;;
68446;BMP280;35789;48.414;12.768;2023-04-01T14:00:26;95850.0;;;
68446;BMP280;35789;48.414;12.768;2023-04-01T14:05:31;95850.0;;;
68446;BMP280;35789;48.414;12.768;2023-04-01T14:10:13;95860.0;;;
68446;BMP280;35789;48.414;12.768;2023-04-01T14:15:29;95870.0;;;
68446;BMP280;35789;48.414;12.768;2023-04-01T14:20:22;95870.0;;;
68446;BMP280;35789;48.414;12.768;2023-04-01T14:25:25;95870.0;;;
68446;BMP280;35789;48.414;12.768;2023-04-01T14:30:20;95870.0;;;
68446;BMP280;35789;48.414;12.768;2023-04-01T14:35:22;95870.0;;;
68446;BMP280;35789;48.414;12.768;2023-04-01T14:40:20;95870.0;;;
68446;BMP280;35789;48.414;12.768;2023-04-01T14:45:25;95870.0;;;
68446;BMP280;35789;48.414;12.768;2023-04-01T14:50:09;95870.0;;;
68446;BMP280;35789;48.414;12.768;2023-04-01T14:55:17;95870.0;;;
68446;BMP280;35789;48.414;12.768;2023-04-01T15:00:13;95870.0;;;
68446;BMP280;35789;48.414;12.768;2023-04-01T15:05:16;95880.0;;;
68446;BMP280;35789;48.414;12.768;2023-04-01T15:10:27;95870.0;;;
68446;BMP280;35789;48.414;12.768;2023-04-01T15:15:16;95870.0;;;
68446;BMP280;35789;48.414;12.768;2023-04-01T15:20:20;95870.0;;;
68446;BMP280;35789;48.414;12.768;2023-04-01T15:25:19;95880.0;;;
68446;BMP280;35789;48.414;12.768;2023-04-01T15:30:18;95880.0;;;
68446;BMP280;35789;48.414;12.768;2023-04-01T15:35:20;95870.0;;;
68446;BMP280;35789;48.414;12.768;2023-04-01T15:40:17;95870.0;;;
68446;BMP280;35789;48.414;12.768;2023-04-01T15:45:16;95870.0;;;
68446;BMP280;35789;48.414;12.768;2023-04-01T15:50:26;95880.0;;;
68446;BMP280;35789;48.414;12.768;2023-04-01T15:55:20;95880.0;;;
68446;BMP280;35789;48.414;12.768;2023-04-01T16:00:13;95890.0;;;
68446;BMP280;35789;48.414;12.768;2023-04-01T16:05:10;95890.0;;;
68446;BMP280;35789;48.414;12.768;2023-04-01T16:10:18;95880.0;;;
68446;BMP280;35789;48.414;12.768;2023-04-01T16:15:15;95880.0;;;
68446;BMP280;35789;48.414;12.768;2023-04-01T16:20:14;95880.0;;;
68446;BMP280;35789;48.414;12.768;2023-04-01T16:25:21;95880.0;;;
68446;BMP280;35789;48.414;12.768;2023-04-01T16:30:23;95880.0;;;
68446;BMP280;35789;48.414;12.768;2023-04-01T16:35:21;95890.0;;;
68446;BMP280;35789;48.414;12.768;2023-04-01T16:40:13;95890.0;;;
68446;BMP280;35789;48.414;12.768;2023-04-01T16:45:19;95890.0;;;
68446;BMP280;35789;48.414;12.768;2023-04-01T16:50:13;95890.0;;;
68446;BMP280;35789;48.414;12.768;2023-04-01T16:55:15;95900.0;;;
68446;BMP280;35789;48.414;12.768;2023-04-01T17:00:15;95910.0;;;
68446;BMP280;35789;48.414;12.768;2023-04-01T17:05:05;95920.0;;;
68446;BMP280;35789;48.414;12.768;2023-04-01T17:10:22;95920.0;;;
68446;BMP280;35789;48.414;12.768;2023-04-01T17:15:12;95920.0;;;
68446;BMP280;35789;48.414;12.768;2023-04-01T17:20:18;95930.0;;;
68446;BMP280;35789;48.414;12.768;2023-04-01T17:25:17;95930.0;;;
68446;BMP280;35789;48.414;12.768;2023-04-01T17:30:18;95940.0;;;
68446;BMP280;35789;48.414;12.768;2023-04-01T17:35:06;95940.0;;;
68446;BMP280;35789;48.414;12.768;2023-04-01T17:40:19;95950.0;;;
68446;BMP280;35789;48.414;12.768;2023-04-01T17:45:09;95950.0;;;
68446;BMP280;35789;48.414;12.768;2023-04-01T17:50:13;95960.0;;;
68446;BMP280;35789;48.414;12.768;2023-04-01T17:55:24;95960.0;;;
68446;BMP280;35789;48.414;12.768;2023-04-01T18:00:17;95960.0;;;
68446;BMP280;35789;48.414;12.768;2023-04-01T18:05:20;95970.0;;;
68446;BMP280;35789;48.414;12.768;2023-04-01T18:10:17;95970.0;;;
68446;BMP280;35789;48.414;12.768;2023-04-01T18:15:18;95970.0;;;
68446;BMP280;35789;48.414;12.768;2023-04-01T18:20:20;95980.0;;;
68446;BMP280;35789;48.414;12.768;2023-04-01T18:25:15;95990.0;;;
68446;BMP280;35789;48.414;12.768;2023-04-01T18:30:07;95990.0;;;
68446;BMP280;35789;48.414;12.768;2023-04-01T18:35:21;95990.0;;;
68446;BMP280;35789;48.414;12.768;2023-04-01T18:40:15;96000.0;;;
68446;BMP280;35789;48.414;12.768;2023-04-01T18:45:17;96000.0;;;
68446;BMP280;35789;48.414;12.768;2023-04-01T18:50:14;96000.0;;;
68446;BMP280;35789;48.414;12.768;2023-04-01T18:55:22;96010.0;;;
68446;BMP280;35789;48.414;12.768;2023-04-01T19:00:11;96010.0;;;
68446;BMP280;35789;48.414;12.768;2023-04-01T19:05:09;96020.0;;;
68446;BMP280;35789;48.414;12.768;2023-04-01T19:10:15;96020.0;;;
68446;BMP280;35789;48.414;12.768;2023-04-01T19:15:15;96020.0;;;
68446;BMP280;35789;48.414;12.768;2023-04-01T19:20:17;96030.0;;;
68446;BMP280;35789;48.414;12.768;2023-04-01T19:25:23;96030.0;;;
68446;BMP280;35789;48.414;12.768;2023-04-01T19:30:19;96030.0;;;
68446;BMP280;35789;48.414;12.768;2023-04-01T19:35:17;96030.0;;;
68446;BMP280;35789;48.414;12.768;2023-04-01T19:40:20;96040.0;;;
68446;BMP280;35789;48.414;12.768;2023-04-01T19:45:21;96040.0;;;
68446;BMP280;35789;48.414;12.768;2023-04-01T19:50:14;96050.0;;;
68446;BMP280;35789;48.414;12.768;2023-04-01T19:55:09;96050.0;;;
68446;BMP280;35789;48.414;12.768;2023-04-01T20:00:14;96060.0;;;
68446;BMP280;35789;48.414;12.768;2023-04-01T20:05:19;96060.0;;;
68446;BMP280;35789;48.414;12.768;2023-04-01T20:10:09;96070.0;;;
68446;BMP280;35789;48.414;12.768;2023-04-01T20:15:04;96070.0;;;
68446;BMP280;35789;48.414;12.768;2023-04-01T20:20:15;96070.0;;;
68446;BMP280;35789;48.414;12.768;2023-04-01T20:25:12;96080.0;;;
68446;BMP280;35789;48.414;12.768;2023-04-01T20:30:25;96080.0;;;
68446;BMP280;35789;48.414;12.768;2023-04-01T20:35:18;96080.0;;;
68446;BMP280;35789;48.414;12.768;2023-04-01T20:40:26;96080.0;;;
68446;BMP280;35789;48.414;12.768;2023-04-01T20:45:23;96080.0;;;
68446;BMP280;35789;48.414;12.768;2023-04-01T20:50:12;96090.0;;;
68446;BMP280;35789;48.414;12.768;2023-04-01T20:55:25;96090.0;;;
68446;BMP280;35789;48.414;12.768;2023-04-01T21:00:30;96100.0;;;
68446;BMP280;35789;48.414;12.768;2023-04-01T21:05:26;96110.0;;;
68446;BMP280;35789;48.414;12.768;2023-04-01T21:10:22;96110.0;;;
68446;BMP280;35789;48.414;12.768;2023-04-01T21:15:21;96110.0;;;
68446;BMP280;35789;48.414;12.768;2023-04-01T21:20:23;96120.0;;;
68446;BMP280;35789;48.414;12.768;2023-04-01T21:25:21;96120.0;;;
68446;BMP280;35789;48.414;12.768;2023-04-01T21:30:21;96120.0;;;
68446;BMP280;35789;48.414;12.768;2023-04-01T21:35:09;96120.0;;;
68446;BMP280;35789;48.414;12.768;2023-04-01T21:40:18;96120.0;;;
68446;BMP280;35789;48.414;12.768;2023-04-01T21:45:20;96130.0;;;
68446;BMP280;35789;48.414;12.768;2023-04-01T21:50:25;96130.0;;;
68446;BMP280;35789;48.414;12.768;2023-04-01T22:00:13;96130.0;;;
68446;BMP280;35789;48.414;12.768;2023-04-01T22:05:10;96130.0;;;
68446;BMP280;35789;48.414;12.768;2023-04-01T22:10:11;96130.0;;;
68446;BMP280;35789;48.414;12.768;2023-04-01T22:15:13;96140.0;;;
68446;BMP280;35789;48.414;12.768;2023-04-01T22:20:16;96140.0;;;
68446;BMP280;35789;48.414;12.768;2023-04-01T22:25:07;96140.0;;;
68446;BMP280;35789;48.414;12.768;2023-04-01T22:30:10;96140.0;;;
68446;BMP280;35789;48.414;12.768;2023-04-01T22:35:12;96140.0;;;
68446;BMP280;35789;48.414;12.768;2023-04-01T22:40:17;96140.0;;;
68446;BMP280;35789;48.414;12.768;2023-04-01T22:45:20;96140.0;;;
68446;BMP280;35789;48.414;12.768;2023-04-01T22:50:11;96140.0;;;
68446;BMP280;35789;48.414;12.768;2023-04-01T22:55:09;96140.0;;;
68446;BMP280;35789;48.414;12.768;2023-04-01T23:00:05;96150.0;;;
68446;BMP280;35789;48.414;12.768;2023-04-01T23:05:05;96140.0;;;
68446;BMP280;35789;48.414;12.768;2023-04-01T23:10:03;96150.0;;;
68446;BMP280;35789;48.414;12.768;2023-04-01T23:15:02;96160.0;;;
68446;BMP280;35789;48.414;12.768;2023-04-01T23:20:14;96160.0;;;
68446;BMP280;35789;48.414;12.768;2023-04-01T23:25:13;96170.0;;;
68446;BMP280;35789;48.414;12.768;2023-04-01T23:30:00;96170.0;;;
68446;BMP280;35789;48.414;12.768;2023-04-01T23:35:00;96180.0;;;
68446;BMP280;35789;48.414;12.768;2023-04-01T23:40:00;96180.0;;;
68446;BMP280;35789;48.414;12.768;2023-04-01T23:45:05;96190.0;;;
68446;BMP280;35789;48.414;12.768;2023-04-01T23:50:06;96190.0;;;
68446;BMP280;35789;48.414;12.768;2023-04-01T23:55:12;96200.0;;;
